createdAt,value
2022-10-20T00:01:22.511Z,11.60
2022-10-20T00:03:51.575Z,12.70
2022-10-20T00:06:28.697Z,13.90
2022-10-20T00:08:59.516Z,9.10
2022-10-20T00:11:29.309Z,12.50
2022-10-20T00:13:58.862Z,11.40
2022-10-20T00:16:29.281Z,10.70
2022-10-20T00:18:58.593Z,9.40
2022-10-20T00:21:28.873Z,11.20
2022-10-20T00:23:59.930Z,11.30
2022-10-20T00:26:29.505Z,9.90
2022-10-20T00:28:58.309Z,10.80
2022-10-20T00:31:26.897Z,11.60
2022-10-20T00:33:55.382Z,9.70
2022-10-20T00:36:24.583Z,8.90
2022-10-20T00:38:58.308Z,10.10
2022-10-20T00:41:27.515Z,11.70
2022-10-20T00:44:01.946Z,8.60
2022-10-20T00:46:39.159Z,12.00
2022-10-20T00:49:18.093Z,13.70
2022-10-20T00:51:46.910Z,12.80
2022-10-20T00:54:19.859Z,11.40
2022-10-20T00:57:17.530Z,22.10
2022-10-20T00:59:46.070Z,12.80
2022-10-20T01:02:14.609Z,14.10
2022-10-20T01:04:44.507Z,12.20
2022-10-20T01:07:12.722Z,18.10
2022-10-20T01:09:41.077Z,17.00
2022-10-20T01:12:37.578Z,10.40
2022-10-20T01:15:56.366Z,13.00
2022-10-20T01:18:55.863Z,10.80
2022-10-20T01:21:54.118Z,10.60
2022-10-20T01:25:37.229Z,12.50
2022-10-20T01:28:23.958Z,15.10
2022-10-20T01:30:59.055Z,13.90
2022-10-20T01:36:12.779Z,16.00
2022-10-20T01:39:01.470Z,13.40
2022-10-20T01:42:11.209Z,12.20
2022-10-20T01:44:41.449Z,11.70
2022-10-20T01:47:12.297Z,9.30
2022-10-20T01:49:44.535Z,11.50
2022-10-20T01:52:13.525Z,15.80
2022-10-20T01:54:41.868Z,12.70
2022-10-20T01:57:51.730Z,13.10
2022-10-20T02:00:20.235Z,12.20
2022-10-20T02:02:51.237Z,12.70
2022-10-20T02:05:51.571Z,13.60
2022-10-20T02:08:37.660Z,13.50
2022-10-20T02:11:10.578Z,10.00
2022-10-20T02:13:39.801Z,10.20
2022-10-20T02:16:19.649Z,9.80
2022-10-20T02:18:49.084Z,9.30
2022-10-20T02:21:17.938Z,13.00
2022-10-20T02:23:50.042Z,13.40
2022-10-20T02:26:22.322Z,10.60
2022-10-20T02:28:59.071Z,11.60
2022-10-20T02:31:27.991Z,10.50
2022-10-20T02:33:57.693Z,10.10
2022-10-20T02:36:28.878Z,9.50
2022-10-20T02:38:57.229Z,8.10
2022-10-20T02:41:26.775Z,11.60
2022-10-20T02:43:54.977Z,12.70
2022-10-20T02:46:23.756Z,7.70
2022-10-20T02:48:52.076Z,6.40
2022-10-20T02:51:20.427Z,12.30
2022-10-20T02:53:49.918Z,9.70
2022-10-20T02:56:18.242Z,6.50
2022-10-20T02:58:46.484Z,8.60
2022-10-20T03:01:14.886Z,9.60
2022-10-20T03:03:43.489Z,8.10
2022-10-20T03:06:15.326Z,9.90
2022-10-20T03:08:44.575Z,7.40
2022-10-20T03:11:12.878Z,9.10
2022-10-20T03:13:41.237Z,10.00
2022-10-20T03:16:09.599Z,10.80
2022-10-20T03:18:37.865Z,8.50
2022-10-20T03:21:06.114Z,14.40
2022-10-20T03:23:34.386Z,9.00
2022-10-20T03:26:04.477Z,15.50
2022-10-20T03:28:32.977Z,17.30
2022-10-20T03:31:01.361Z,17.00
2022-10-20T03:33:29.616Z,15.40
2022-10-20T03:35:57.993Z,12.20
2022-10-20T03:38:26.273Z,13.30
2022-10-20T03:40:54.622Z,12.00
2022-10-20T03:43:22.974Z,12.30
2022-10-20T03:45:51.470Z,9.10
2022-10-20T03:48:19.713Z,13.50
2022-10-20T03:50:48.036Z,9.80
2022-10-20T03:53:16.330Z,15.20
2022-10-20T03:55:44.598Z,7.50
2022-10-20T03:58:12.830Z,10.10
2022-10-20T04:00:45.569Z,12.60
2022-10-20T04:03:14.083Z,8.10
2022-10-20T04:05:42.462Z,12.40
2022-10-20T04:12:30.931Z,8.20
2022-10-20T04:14:59.180Z,9.20
2022-10-20T04:17:28.592Z,10.00
2022-10-20T04:19:56.873Z,8.40
2022-10-20T04:22:25.735Z,7.30
2022-10-20T04:24:53.970Z,7.30
2022-10-20T04:27:22.264Z,6.60
2022-10-20T04:29:50.562Z,6.40
2022-10-20T04:32:18.771Z,6.60
2022-10-20T04:34:47.028Z,6.00
2022-10-20T04:37:15.251Z,7.30
2022-10-20T04:39:43.633Z,7.50
2022-10-20T04:42:11.967Z,6.30
2022-10-20T04:44:40.229Z,8.40
2022-10-20T04:47:08.502Z,11.00
2022-10-20T04:49:36.778Z,10.50
2022-10-20T04:52:05.064Z,10.80
2022-10-20T04:54:33.354Z,15.40
2022-10-20T04:57:01.753Z,13.20
2022-10-20T04:59:30.061Z,18.40
2022-10-20T05:01:58.505Z,8.20
2022-10-20T05:04:26.953Z,9.80
2022-10-20T05:06:55.287Z,11.30
2022-10-20T05:09:23.510Z,12.10
2022-10-20T05:11:52.395Z,12.10
2022-10-20T05:14:21.835Z,39.20
2022-10-20T05:16:50.099Z,50.90
2022-10-20T05:19:18.763Z,27.10
2022-10-20T05:21:52.126Z,13.30
2022-10-20T05:24:22.037Z,8.40
2022-10-20T05:26:51.126Z,9.30
2022-10-20T05:29:19.459Z,12.40
2022-10-20T05:31:47.760Z,24.30
2022-10-20T05:34:16.697Z,14.10
2022-10-20T05:36:44.978Z,9.70
2022-10-20T05:39:13.340Z,11.50
2022-10-20T05:41:41.586Z,10.40
2022-10-20T05:44:12.235Z,11.90
2022-10-20T05:46:41.870Z,10.90
2022-10-20T05:49:14.385Z,12.80
2022-10-20T05:51:43.890Z,11.40
2022-10-20T05:54:14.046Z,14.70
2022-10-20T05:56:45.274Z,13.50
2022-10-20T05:59:15.656Z,11.10
2022-10-20T06:01:49.936Z,11.90
2022-10-20T06:04:23.422Z,11.10
2022-10-20T06:06:53.055Z,11.00
2022-10-20T06:09:22.929Z,13.40
2022-10-20T06:11:52.387Z,12.30
2022-10-20T06:14:27.306Z,12.90
2022-10-20T06:16:56.074Z,10.90
2022-10-20T06:19:25.535Z,16.10
2022-10-20T06:21:54.372Z,27.90
2022-10-20T06:24:22.730Z,40.90
2022-10-20T06:26:51.628Z,26.80
2022-10-20T06:29:22.355Z,28.80
2022-10-20T06:31:51.956Z,17.90
2022-10-20T06:34:22.836Z,17.70
2022-10-20T06:36:52.704Z,14.50
2022-10-20T06:39:23.539Z,16.50
2022-10-20T06:41:58.143Z,16.40
2022-10-20T06:44:29.817Z,18.30
2022-10-20T06:46:58.146Z,17.30
2022-10-20T06:49:26.551Z,17.70
2022-10-20T06:51:54.880Z,18.40
2022-10-20T06:54:23.229Z,18.20
2022-10-20T06:56:51.470Z,21.40
2022-10-20T06:59:19.917Z,33.30
2022-10-20T07:01:48.802Z,28.80
2022-10-20T07:04:17.578Z,23.00
2022-10-20T07:06:46.826Z,27.40
2022-10-20T07:09:18.611Z,18.90
2022-10-20T07:11:52.158Z,18.90
2022-10-20T07:14:21.096Z,14.70
2022-10-20T07:16:50.417Z,13.60
2022-10-20T07:19:19.044Z,13.30
2022-10-20T07:21:47.352Z,16.10
2022-10-20T07:24:16.888Z,18.80
2022-10-20T07:26:45.221Z,16.60
2022-10-20T07:29:14.898Z,14.60
2022-10-20T07:31:48.155Z,13.70
2022-10-20T07:34:27.276Z,12.30
2022-10-20T07:36:57.239Z,15.30
2022-10-20T07:39:28.065Z,11.70
2022-10-20T07:41:56.371Z,11.50
2022-10-20T07:44:24.715Z,14.30
2022-10-20T07:46:53.075Z,13.60
2022-10-20T07:52:09.895Z,11.90
2022-10-20T07:54:38.243Z,13.20
2022-10-20T07:57:06.562Z,14.10
2022-10-20T07:59:35.321Z,13.80
2022-10-20T08:02:03.965Z,13.20
2022-10-20T08:04:32.217Z,12.50
2022-10-20T08:07:00.860Z,12.00
2022-10-20T08:09:29.273Z,15.50
2022-10-20T08:11:57.915Z,17.00
2022-10-20T08:14:32.124Z,11.30
2022-10-20T08:17:01.933Z,11.20
2022-10-20T08:22:13.290Z,12.10
2022-10-20T08:24:41.715Z,11.20
2022-10-20T08:27:10.006Z,17.30
2022-10-20T08:29:41.243Z,11.60
2022-10-20T08:32:20.142Z,13.60
2022-10-20T08:34:48.441Z,13.00
2022-10-20T08:39:50.874Z,11.80
2022-10-20T08:42:19.156Z,11.80
2022-10-20T08:44:47.770Z,10.90
2022-10-20T08:47:33.644Z,11.00
2022-10-20T08:50:09.571Z,8.70
2022-10-20T08:52:42.107Z,9.90
2022-10-20T08:55:33.998Z,9.00
2022-10-20T08:58:11.745Z,8.00
2022-10-20T09:00:40.784Z,6.20
2022-10-20T09:03:14.853Z,10.10
2022-10-20T09:05:55.054Z,9.60
2022-10-20T09:08:28.389Z,8.10
2022-10-20T09:10:57.087Z,9.50
2022-10-20T09:13:27.732Z,8.10
2022-10-20T09:16:08.002Z,10.90
2022-10-20T09:18:36.488Z,8.70
2022-10-20T09:21:16.782Z,9.30
2022-10-20T09:23:49.426Z,10.60
2022-10-20T09:26:37.583Z,5.40
2022-10-20T09:29:14.367Z,5.60
2022-10-20T09:31:52.529Z,7.50
2022-10-20T09:34:35.281Z,13.30
2022-10-20T09:37:09.538Z,9.20
2022-10-20T09:39:40.833Z,5.80
2022-10-20T09:42:20.127Z,3.40
2022-10-20T09:45:29.302Z,5.00
2022-10-20T09:48:20.935Z,6.70
2022-10-20T09:50:55.495Z,4.00
2022-10-20T09:53:49.126Z,6.70
2022-10-20T09:56:35.742Z,6.50
2022-10-20T09:59:19.490Z,5.30
2022-10-20T10:01:55.371Z,6.30
2022-10-20T10:04:39.004Z,4.90
2022-10-20T10:07:27.183Z,4.70
2022-10-20T10:10:08.810Z,2.80
2022-10-20T10:12:37.627Z,5.40
2022-10-20T10:15:24.394Z,5.40
2022-10-20T10:17:52.985Z,4.10
2022-10-20T10:20:21.232Z,5.90
2022-10-20T10:22:49.469Z,6.00
2022-10-20T10:25:28.006Z,4.60
2022-10-20T10:28:00.936Z,5.50
2022-10-20T10:30:31.954Z,8.20
2022-10-20T10:33:01.182Z,6.80
2022-10-20T10:35:33.789Z,6.70
2022-10-20T10:38:02.546Z,14.30
2022-10-20T10:40:36.944Z,5.90
2022-10-20T10:43:29.989Z,5.60
2022-10-20T10:46:05.230Z,6.50
2022-10-20T10:48:52.474Z,5.60
2022-10-20T10:51:48.098Z,4.30
2022-10-20T10:57:57.172Z,5.40
2022-10-20T11:00:44.278Z,6.60
2022-10-20T11:03:21.428Z,2.20
2022-10-20T11:06:01.307Z,3.10
2022-10-20T11:08:53.867Z,1.90
2022-10-20T11:11:48.875Z,1.90
2022-10-20T11:14:42.198Z,1.50
2022-10-20T11:17:38.366Z,5.60
2022-10-20T11:20:18.478Z,1.90
2022-10-20T11:22:55.825Z,2.00
2022-10-20T11:25:34.388Z,2.50
2022-10-20T11:28:02.671Z,3.60
2022-10-20T11:30:34.145Z,3.50
2022-10-20T11:33:12.991Z,2.70
2022-10-20T11:36:22.472Z,3.20
2022-10-20T11:38:54.519Z,4.80
2022-10-20T11:41:22.807Z,6.30
2022-10-20T11:43:59.432Z,3.60
2022-10-20T11:46:36.839Z,4.40
2022-10-20T11:49:05.457Z,4.60
2022-10-20T11:51:45.021Z,3.70
2022-10-20T11:54:31.917Z,3.30
2022-10-20T11:57:18.521Z,4.40
2022-10-20T12:00:15.003Z,3.90
2022-10-20T12:02:43.289Z,3.40
2022-10-20T12:05:33.140Z,2.00
2022-10-20T12:08:30.293Z,3.10
2022-10-20T12:11:11.042Z,2.70
2022-10-20T12:13:57.630Z,3.30
2022-10-20T12:16:54.080Z,6.70
2022-10-20T12:19:28.284Z,3.30
2022-10-20T12:22:26.906Z,6.60
2022-10-20T12:24:55.197Z,3.40
2022-10-20T12:27:29.642Z,3.20
2022-10-20T12:29:59.470Z,4.50
2022-10-20T12:32:27.645Z,11.90
2022-10-20T12:35:19.057Z,3.00
2022-10-20T12:38:04.141Z,5.60
2022-10-20T12:40:42.703Z,4.10
2022-10-20T12:43:30.851Z,5.60
2022-10-20T12:46:06.734Z,6.40
2022-10-20T12:48:39.086Z,6.20
2022-10-20T12:51:17.165Z,5.90
2022-10-20T12:53:56.834Z,7.00
2022-10-20T12:56:32.282Z,4.50
2022-10-20T12:59:22.144Z,4.70
2022-10-20T13:02:08.775Z,6.10
2022-10-20T13:05:08.152Z,4.90
2022-10-20T13:07:48.776Z,7.20
2022-10-20T13:10:26.873Z,20.00
2022-10-20T13:13:18.365Z,8.60
2022-10-20T13:15:50.462Z,7.60
2022-10-20T13:18:32.331Z,6.20
2022-10-20T13:21:19.702Z,8.80
2022-10-20T13:24:14.154Z,6.70
2022-10-20T13:26:50.301Z,5.80
2022-10-20T13:29:37.099Z,7.30
2022-10-20T13:33:10.785Z,5.30
2022-10-20T13:35:47.898Z,9.70
2022-10-20T13:38:26.183Z,10.40
2022-10-20T13:41:07.770Z,8.20
2022-10-20T13:43:46.867Z,8.10
2022-10-20T13:46:47.286Z,7.30
2022-10-20T13:49:55.503Z,10.40
2022-10-20T13:52:26.914Z,8.80
2022-10-20T13:54:56.707Z,8.60
2022-10-20T13:57:29.476Z,8.00
2022-10-20T14:00:16.685Z,8.20
2022-10-20T14:03:03.529Z,12.50
2022-10-20T14:05:39.382Z,7.90
2022-10-20T14:08:09.608Z,9.00
2022-10-20T14:11:00.182Z,14.30
2022-10-20T14:13:34.477Z,11.40
2022-10-20T14:16:06.475Z,11.40
2022-10-20T14:18:39.398Z,6.80
2022-10-20T14:21:16.479Z,9.60
2022-10-20T14:23:46.772Z,9.60
2022-10-20T14:26:21.964Z,9.10
2022-10-20T14:28:52.190Z,12.40
2022-10-20T14:31:25.299Z,10.40
2022-10-20T14:33:54.118Z,9.90
2022-10-20T14:39:01.155Z,8.50
2022-10-20T14:41:35.994Z,9.70
2022-10-20T14:44:12.925Z,7.80
2022-10-20T14:46:48.785Z,12.50
2022-10-20T14:49:28.211Z,11.10
2022-10-20T14:52:03.569Z,16.40
2022-10-20T14:54:32.779Z,13.10
2022-10-20T14:57:10.191Z,11.40
2022-10-20T15:00:20.767Z,9.90
2022-10-20T15:02:56.295Z,8.10
2022-10-20T15:05:34.294Z,8.80
2022-10-20T15:08:17.009Z,7.70
2022-10-20T15:10:45.963Z,8.00
2022-10-20T15:13:28.172Z,7.50
2022-10-20T15:15:59.573Z,11.50
2022-10-20T15:18:29.251Z,6.10
2022-10-20T15:20:57.738Z,7.90
2022-10-20T15:23:29.651Z,8.70
2022-10-20T15:26:05.798Z,9.80
2022-10-20T15:28:44.994Z,6.80
2022-10-20T15:31:13.234Z,6.60
2022-10-20T15:33:41.898Z,13.40
2022-10-20T15:36:20.915Z,11.10
2022-10-20T15:38:49.774Z,11.90
2022-10-20T15:41:19.266Z,21.30
2022-10-20T15:43:48.215Z,20.60
2022-10-20T15:46:17.824Z,26.50
2022-10-20T15:48:46.186Z,25.60
2022-10-20T15:51:34.295Z,33.50
2022-10-20T15:54:03.026Z,28.90
2022-10-20T15:56:31.360Z,23.30
2022-10-20T15:58:59.622Z,30.80
2022-10-20T16:01:28.289Z,18.00
2022-10-20T16:03:57.013Z,15.60
2022-10-20T16:06:25.335Z,12.60
2022-10-20T16:08:53.734Z,10.20
2022-10-20T16:11:22.065Z,8.60
2022-10-20T16:13:50.466Z,13.10
2022-10-20T16:16:20.299Z,14.40
2022-10-20T16:18:48.979Z,13.70
2022-10-20T16:21:17.214Z,11.00
2022-10-20T16:23:45.749Z,13.10
2022-10-20T16:26:15.136Z,14.30
2022-10-20T16:28:43.593Z,10.80
2022-10-20T16:31:14.548Z,12.30
2022-10-20T16:33:43.183Z,26.90
2022-10-20T16:36:14.980Z,11.40
2022-10-20T16:38:44.068Z,9.50
2022-10-20T16:41:15.708Z,10.60
2022-10-20T16:43:46.127Z,11.70
2022-10-20T16:46:16.221Z,11.40
2022-10-20T16:48:47.551Z,14.70
2022-10-20T16:51:17.590Z,16.70
2022-10-20T16:53:45.894Z,11.60
2022-10-20T16:56:16.919Z,10.20
2022-10-20T16:58:49.142Z,18.30
2022-10-20T17:01:20.572Z,21.00
2022-10-20T17:03:51.536Z,25.90
2022-10-20T17:06:22.883Z,15.80
2022-10-20T17:08:51.596Z,35.70
2022-10-20T17:11:23.728Z,26.30
2022-10-20T17:13:53.089Z,23.10
2022-10-20T17:16:27.609Z,21.00
2022-10-20T17:18:59.011Z,19.80
2022-10-20T17:21:28.317Z,20.10
2022-10-20T17:23:57.142Z,20.40
2022-10-20T17:26:27.185Z,20.60
2022-10-20T17:28:56.578Z,27.70
2022-10-20T17:31:25.073Z,34.50
2022-10-20T17:33:55.763Z,58.70
2022-10-20T17:36:26.320Z,32.70
2022-10-20T17:38:56.948Z,24.00
2022-10-20T17:41:25.513Z,28.00
2022-10-20T17:43:54.114Z,73.30
2022-10-20T17:46:22.432Z,52.00
2022-10-20T17:48:50.689Z,29.50
2022-10-20T17:51:26.846Z,31.80
2022-10-20T17:54:00.530Z,27.00
2022-10-20T17:56:35.418Z,30.30
2022-10-20T17:59:06.529Z,35.90
2022-10-20T18:01:44.062Z,37.10
2022-10-20T18:04:15.043Z,29.90
2022-10-20T18:06:45.567Z,27.60
2022-10-20T18:09:17.281Z,28.60
2022-10-20T18:11:49.438Z,26.60
2022-10-20T18:14:18.547Z,35.90
2022-10-20T18:16:47.304Z,36.30
2022-10-20T18:19:17.802Z,33.20
2022-10-20T18:21:46.582Z,32.10
2022-10-20T18:24:16.199Z,31.90
2022-10-20T18:26:45.445Z,42.10
2022-10-20T18:29:15.671Z,35.80
2022-10-20T18:31:46.208Z,38.00
2022-10-20T18:34:22.950Z,39.90
2022-10-20T18:36:54.542Z,41.60
2022-10-20T18:39:23.311Z,42.80
2022-10-20T18:41:52.736Z,42.80
2022-10-20T18:44:21.260Z,41.60
2022-10-20T18:46:51.448Z,40.80
2022-10-20T18:49:21.618Z,41.40
2022-10-20T18:51:50.520Z,41.80
2022-10-20T18:54:20.145Z,45.70
2022-10-20T18:56:48.489Z,38.90
2022-10-20T18:59:17.958Z,43.40
2022-10-20T19:01:48.314Z,42.20
2022-10-20T19:04:16.836Z,44.40
2022-10-20T19:06:47.657Z,39.90
2022-10-20T19:09:18.767Z,47.10
2022-10-20T19:14:18.374Z,59.40
2022-10-20T19:16:47.824Z,56.20
2022-10-20T19:19:16.516Z,70.70
2022-10-20T19:21:45.574Z,98.40
2022-10-20T19:24:17.760Z,100.60
2022-10-20T19:26:56.898Z,134.60
2022-10-20T19:29:36.573Z,83.00
2022-10-20T19:32:06.932Z,71.90
2022-10-20T19:34:38.227Z,70.40
2022-10-20T19:37:07.151Z,74.60
2022-10-20T19:39:41.396Z,79.00
2022-10-20T19:42:11.297Z,64.50
2022-10-20T19:44:40.170Z,65.70
2022-10-20T19:47:09.298Z,86.90
2022-10-20T19:49:37.951Z,78.00
2022-10-20T19:52:08.004Z,73.50
2022-10-20T19:54:36.370Z,96.30
2022-10-20T19:57:06.242Z,177.90
2022-10-20T19:59:34.607Z,182.70
2022-10-20T20:02:03.390Z,158.80
2022-10-20T20:04:31.713Z,95.60
2022-10-20T20:07:02.371Z,72.60
2022-10-20T20:09:31.466Z,75.90
2022-10-20T20:12:00.032Z,64.80
2022-10-20T20:14:28.496Z,62.30
2022-10-20T20:16:56.868Z,59.10
2022-10-20T20:19:25.210Z,60.60
2022-10-20T20:21:53.866Z,54.20
2022-10-20T20:24:22.137Z,57.50
2022-10-20T20:26:50.520Z,67.80
2022-10-20T20:29:18.878Z,68.20
2022-10-20T20:31:48.233Z,65.00
2022-10-20T20:34:17.686Z,78.60
2022-10-20T20:36:46.008Z,65.40
2022-10-20T20:39:14.294Z,61.60
2022-10-20T20:41:42.885Z,64.30
2022-10-20T20:44:11.229Z,67.30
2022-10-20T20:46:39.694Z,74.40
2022-10-20T20:49:08.151Z,107.90
2022-10-20T20:51:36.519Z,206.00
2022-10-20T20:54:04.838Z,155.10
2022-10-20T20:56:33.184Z,157.90
2022-10-20T20:59:01.711Z,134.40
2022-10-20T21:01:34.040Z,114.60
2022-10-20T21:04:05.562Z,123.30
2022-10-20T21:06:56.588Z,96.40
2022-10-20T21:09:22.640Z,129.40
2022-10-20T21:11:50.873Z,103.30
2022-10-20T21:14:19.446Z,117.10
2022-10-20T21:16:47.803Z,106.60
2022-10-20T21:19:16.243Z,75.50
2022-10-20T21:21:50.624Z,73.10
2022-10-20T21:24:19.205Z,71.00
2022-10-20T21:26:48.847Z,79.00
2022-10-20T21:29:17.774Z,124.60
2022-10-20T21:31:46.143Z,137.10
2022-10-20T21:34:14.554Z,135.70
2022-10-20T21:36:43.209Z,159.40
2022-10-20T21:39:15.940Z,116.50
2022-10-20T21:41:45.803Z,89.00
2022-10-20T21:44:15.163Z,74.70
2022-10-20T21:46:49.369Z,77.90
2022-10-20T21:49:21.142Z,113.70
2022-10-20T21:51:55.603Z,105.20
2022-10-20T21:54:26.048Z,112.60
2022-10-20T21:56:55.291Z,126.70
2022-10-20T21:59:29.491Z,169.70
2022-10-20T22:02:00.117Z,171.20
2022-10-20T22:04:30.005Z,136.20
2022-10-20T22:06:59.737Z,141.10
2022-10-20T22:09:28.307Z,111.70
2022-10-20T22:11:58.576Z,142.00
2022-10-20T22:14:28.178Z,128.00
2022-10-20T22:16:56.769Z,122.40
2022-10-20T22:19:25.588Z,109.60
2022-10-20T22:21:54.801Z,126.50
2022-10-20T22:24:23.702Z,115.10
2022-10-20T22:26:52.972Z,112.40
2022-10-20T22:29:23.194Z,114.20
2022-10-20T22:31:51.813Z,112.50
2022-10-20T22:34:20.156Z,107.50
2022-10-20T22:36:48.514Z,132.60
2022-10-20T22:39:16.761Z,96.30
2022-10-20T22:41:45.023Z,124.50
2022-10-20T22:44:13.381Z,106.10
2022-10-20T22:46:41.586Z,117.80
2022-10-20T22:49:12.106Z,103.60
2022-10-20T22:51:40.404Z,83.00
2022-10-20T22:54:08.698Z,94.10
2022-10-20T22:56:36.960Z,86.10
2022-10-20T22:59:05.277Z,83.30
2022-10-20T23:01:33.675Z,65.10
2022-10-20T23:04:02.073Z,68.60
2022-10-20T23:06:30.352Z,66.60
2022-10-20T23:08:58.699Z,60.30
2022-10-20T23:11:28.734Z,57.20
2022-10-20T23:13:57.007Z,58.80
2022-10-20T23:18:58.796Z,52.40
2022-10-20T23:21:27.025Z,53.90
2022-10-20T23:23:55.281Z,62.50
2022-10-20T23:26:23.708Z,78.00
2022-10-20T23:28:52.123Z,89.40
2022-10-20T23:31:22.052Z,64.70
2022-10-20T23:33:54.390Z,84.90
2022-10-20T23:36:23.297Z,70.90
2022-10-20T23:38:51.893Z,61.00
2022-10-20T23:41:20.227Z,53.80
2022-10-20T23:43:48.566Z,46.60
2022-10-20T23:46:16.886Z,43.90
2022-10-20T23:48:45.190Z,41.80
2022-10-20T23:51:13.555Z,39.80
2022-10-20T23:53:41.948Z,39.50
2022-10-20T23:56:10.191Z,47.70
2022-10-20T23:58:38.398Z,47.40
